Cheney, KS

7:24 PM CDT on April 26, 2015 (GMT -0500)
WSU Field Station | | Change Station
CLOSE
Current Station
Personal Weather Station
Location: Viola, KS
Elevation: 1332 ft
Nearby Weather Stations

Elev 1332 ft 37.53 °N, 97.67 °W | Updated 51 seconds ago

Overcast
Overcast
53.7 °F
Feels Like 53.7 °F
N
10.0
Wind Variable Wind from ESE
Gusts 12.0 mph

Today
High -- | Low -- °F
--% Chance of Precip.
Yesterday
High -- | Low -- °F
Precip. -- in
6:41 AM 8:16 PM
First Quarter, 60% visible
Pressure 29.86 in
Visibility 10.0 miles
Clouds Overcast 2000 ft
Dew Point 47 °F
Humidity 78%
Rainfall 0.00 in
Snow Depth Not available.
UV 0.0 out of 12
Pollen 11.50 out of 12
Air Quality Not available.
Flu Activity Sporadic
METAR KICT 262353Z 06015G21KT 10SM OVC020 12/07 A2986 RMK AO2 SLP111 T01220072 10156 20122 50007

More Conditions Fewer Conditions

Pressure 29.86 in
Visibility 10.0 miles
Clouds Overcast 2000 ft
Dew Point 47 °F
Humidity 78%
Rainfall 0.00 in
Snow Depth Not available.
UV 0.0 out of 12
Pollen 11.50 out of 12
Air Quality Not available.
Flu Activity Sporadic
METAR KICT 262353Z 06015G21KT 10SM OVC020 12/07 A2986 RMK AO2 SLP111 T01220072 10156 20122 50007

More Conditions Fewer Conditions

The full scope of the disaster following a powerful 7.8-magnitude earthquake in Nepal may not come into view for days, but global charities are already sending emergency aid. Click to see how you can help.

10-Day Weather Forecast

Almanac

Astronomy

Apr. 26, 2015 Rise Set
Actual Time
Civil Twilight
Nautical Twilight
Astronomical Twilight
Moon
Length of Visible Light
Length of Day
Tomorrow will be .
, % of the Moon is Illuminated

Today's Extremes

State Highs State Lows

Community

WunderPhotos

Upload Photos

1,817,173 photos uploaded!

WunderBlogs® & News

Nearby

Air Quality

  Air Quality AQ Index Pollutant
Not available.

Snow Depth

Station Depth Elevation

Earthquake Activity

City Distance Mag. Time & Date
Minimum magnitude displayed is 2.5.

Coastal Water Temperatures

Place Temperature

Stations

Nearby Weather Stations

Station Location Temp. Windchill Dew Point Humidity Wind Precip. Elev Updated Type